Jenis Tanggal dan Waktu Data
Tafor2021-04-28 23:59:56FTID43 WAJJ 282300 TAF WAJI 282300Z 2900/2912 16004KT 9999 FEW015= TAF WAVV 282300Z 2900/2912 13004KT 9999 SCT020 BECMG 2903/2905 15016KT TEMPO 2906/2908 VCSH FEW015CB BKN020= TAF WAKT 282300Z 2900/2912 22004KT 9999 SCT010= TAF WAKK 282300Z 2900/2912 03006KT 9999 BKN016 TEMPO 2904/2906 5000 RA BECMG 2910/2911 7000= FTID31 WAJJ 282300 TAF WAJJ 282300Z 2900/2924 14003KT 9999 FEW013 BECMG 2902/2904 28008KT FEW012CB FEW013 BECMG 2911/2913 00000KT=
Tafor2021-04-28 11:59:52FTID43 WAJJ 281100 TAF WAJI 281100Z 2812/2824 00000KT 9000 SCT015= TAF WAVV 281100Z 2812/2824 15002KT 3000 BR BKN010 TEMPO 2812/2814 RA BECMG 2820/2822 9000 NSW SCT020= TAF WAKT 281100Z 2812/2824 00000KT 8000 SCT010 PROB30 TEMPO 2812/2814 4000 -TSRA FEW009CB SCT010= TAF WAKK 281100Z 2812/2824 16004KT 9000 SCT016 TEMPO 2814/2816 5000 -RA BKN015=
Tafor2021-04-22 17:39:19FTID43 WAJJ 221700 TAF WAJI 221700Z 2218/2306 00000KT 9000 FEW015 TAF WAVV 221700Z 2218/2306 15014KT 2000 BR BKN003 BECMG 2220/2222 4000 BR BKN005 BECMG 2223/2301 7000 NSW SCT014= TAF WAKT 221700Z 2218/2306 21002KT 8000 SCT010= TAF WAKK 221700Z 2218/2306 00000KT 8000 SCT016=
Tafor2021-04-22 17:38:48FTID31 WAJJ 221700 TAF WAJJ 221700Z 2218/2318 29002KT 9999 FEW012 BECMG 2222/2224 29002KT BECMG 2301/2303 00000KT TEMPO 2305/2308 FEW012CB FEW013=
Tafor2021-04-22 11:39:38FTID43 WAJJ 221100 TAF WAJI 221100Z 2212/2224 35004KT 8000 FEW015 = TAF WAVV 221100Z 2212/2224 15014KT 7000 BKN010 PROB30 TEMPO 2212/2215 4000 -RA BKN005 BECMG 2217/2219 2000 BR BKN003= TAF WAKT 221100Z 2212/2224 21002KT 9000 FEW010 SCT011= TAF WAKK 221100Z 2212/2224 20003KT 8000 FEW015=
Tafor2021-04-22 11:39:05FTID31 WAJJ 221100 TAF WAJJ 221100Z 2212/2312 28004KT 9999 FEW013 BECMG 2212/2214 00000KT BECMG 2214/2215 28005KT PROB40 TEMPO 2215/2219 7000 -RA SCT011 BECMG 2219/2224 9999 NSW=
Tafor2021-04-19 17:57:28FTID31 WAJJ 191700 TAF WAJJ 191700Z 1918/2018 00000KT 9999 SCT012 BECMG 1921/1922 13004KT TEMPO 2006/2009 FEW012CB SCT012= FTID43 WAJJ 191700 TAF WAJI 191700Z 1918/2006 00000KT 9999 SCT015 BECMG 12004KT= TAF WAVV 191700Z 1918/2006 15002KT 3000 BR BKN003 BECMG 1922/1923 9000 NSW BKN016= TAF WAKT 191700Z 1918/2006 00000KT 9000 SCT010= TAF WAKK 191700Z 1918/2006 00000KT 9000 SCT016 BECMG 1920/1922 06004KT=
Tafor2021-04-19 11:52:21FTID31 WAJJ 191100 TAF WAJJ 191100Z 1912/2012 12003KT 6000 -RA SCT011 BECMG 1914/1915 00000KT 9999 NSW BECMG 1920/1922 14003KT= FTID43 WAJJ 191100 TAF WAJI 191100Z 1912/1924 00000KT 9000 SCT015= TAF WAVV 191100Z 1912/1924 15002KT 3000 BR BKN004 TEMPO 1913/1915 RA BECMG 1921/1923 33003KT 9000 NSW BKN020= TAF WAKT 191100Z 1912/1924 18003KT 9000 SCT010 TEMPO 1912/1915 5000 RA BKN010= TAF WAKK 191100Z 1912/1924 16004KT 9000 SCT016 BECMG 1916/1918 00000KT=
Tafor2021-04-12 11:57:59TAF WAJJ 121100Z 1212/1312 00000KT 7000 -RA SCT010 TEMPO 1219/1221 9000 NSW BECMG 1222/1224 27005KT SCT012= TAF WAJI 121100Z 1212/1224 00000KT 8000 SCT015 PROB30 TEMPO 1212/1215 -RA= TAF WAVV 121100Z 1212/1224 16005KT 4000 BR BKN008 BECMG 1217/1219 2000 BR BKN007 BECMG 1222/1224 6000 NSW SCT014= TAF WAKT 121100Z 1212/1224 00000KT 8000 FEW008CB SCT009 TEMPO 1213/1216 5000 -RA= TAF WAKK 121100Z 1212/1224 16004KT 8000 SCT018 BECMG 1216/1218 00000KT=
Tafor2021-04-10 18:22:25[02:11, 4/11/2021] Bmkg Sentani: FTID43 WAJJ 101700 TAF WAJI 101700Z 1018/1106 26004KT 9000 SCT015= TAF WAVV 101700Z 1018/1106 15002KT 2000 BKN003 BECMG 1021/1022 31003KT 9000 NSW SCT020= TAF WAKT 101700Z 1018/1106 30003KT 9000 SCT010= TAF WAKK 101700Z 1018/1106 26004KT 9000 SCT016= [02:12, 4/11/2021] Bmkg Sentani: FTID31 WAJJ 101700 TAF WAJJ 101700Z 1018/1118 28006KT 9999 SCT013 PROB40 TEMPO 1019/1022 6000 -RA TEMPO 1105/1109 VCSH FEW012CB SCT013=
Tafor2021-04-10 12:07:44FTID43 WAJJ 101100 TAF WAJI 101100Z 1012/1024 08003KT 9000 SCT015= TAF WAVV 101100Z 1012/1024 15003KT 9000 BKN011 PROB30 TEMPO 1012/1014 -RA BECMG 1014/1015 00000KT 3000 BR BKN003= TAF WAKT 101100Z 1012/1024 12004KT 9000 BKN010 TEMPO 1013/1015 4000 RA= TAF WAKK 101100Z 1012/1024 24004KT 9000 SCT017= FTID31 WAJJ 101100 TAF WAJJ 101100Z 1012/1112 28005KT 9999 SCT012 BECMG 1014/1416 00000KT PROB30 TEMPO 1015/1018 6000 -RA BECMG 1021/1022 12004KT=
Tafor2021-04-01 23:56:35FTID43 WAJJ 012300 TAF WAJI 012300Z 0200/0212 26004KT 9999 SCT014 BECMG 0208/0210 00000KT= TAF WAVV 012300Z 0200/0212 32003KT 6000 -RA BKN009 BECMG 0202/0203 15004KT 9999 NSW SCT020 BECMG 0204/0206 15016KT= TAF WAKT 0123000Z 0200/0212 32004KT 9999 SCT009= TAF WAKK 012300Z 0200/0212 04005KT 9000 BKN016 TEMPO 0202/0204 5000 -RA PROB40 TEMPO 0206/0209 4000 TSRA FEW013CB BECMG 0211/0212 7000= FTID31 WAJJ 012300 TAF WAJJ 012300Z 0200/0224 12004KT 9999 SCT013 BECMG 0203/0205 28007KT TEMPO 0206/0209 FEW012CB FEW013=
Tafor2021-04-01 18:23:27FTID43 WAJJ 011700 TAF WAJI 011700Z 0118/0206 00000KT 9000 SCT014 BECMG 0122/0124 32004KT= TAF WAVV 011700Z 0118/0206 15002KT 1000 VCFG BKN002 BECMG 0121/0123 33003KT 9000 NSW SCT020 BECMG 0203/0205 15016KT= TAF WAKT 0117000Z 0118/0206 00000KT 9000 SCT010 BECMG 0201/0203 32003KT= TAF WAKK 011700Z 0118/0206 00000KT 9000 SCT017 PROB40 TEMPO 0120/0122 -RA BECMG 0122/0124 12004KT= FTID31 WAJJ 011700 TAF WAJJ 011700Z 0118/0218 00000KT 6000 -RA SCT012 BECMG 0120/0121 12004KT 9999 NSW BECMG 0202/0204 28006KT TEMPO 0205/0209 FEW012CB FEW013=
Tafor2021-04-01 12:03:38FTID43 WAJJ 011100 TAF WAJI 011100Z 0112/0124 00000KT 9000 SCT015= TAF WAVV 011100Z 0112/0124 15003KT 3000 BR BKN010 TEMPO 1113/1115 RA= TAF WAKT 0111000Z 0112/0124 22003KT 4000 TSRA FEW008CB BKN009 BECMG 0114/0116 00000KT 8000 SCT010= TAF WAKK 011100Z 0112/0124 24003KT 9000 SCT017 BECMG 0115/0117 00000KT= FTID31 WAJJ 011100 TAF WAJJ 011100Z 0112/0212 00000KT 9999 SCT012 PROB40 TEMPO 1114/1117 6000 -RA BKN011 BECMG 0119/0121 12004KT=
Tafor2021-03-31 06:04:12FTID31 WAJJ 310500 TAF WAJJ 310500Z 3106/0106 30008KT 7000 -RA SCT011 TEMPO 3106/3110 5000 RA BKN012 BECMG 3112/3114 00000KT BECMG 3122/3124 35005KT=
Tafor2021-03-26 16:50:06FTID43 WAJJ 261700 TAF WAJI 261700Z 2618/2706 00000KT 8000 SCT014 PROB30 TEMPO 2614/2616 6000 -RA= TAF WAVV 261700Z 2618/2706 15002KT 6000 BKN015 BECMG 2615/2617 2000 BR BKN003 TEMPO 2618/2620 16004KT 5000 BKN006 BECMG 2621/2623 7000= TAF WAKT 261700Z 2618/2706 25005KT 5000 -RA FEW009CB BKN010 BECMG 2621/2623 8000 NSW BKN009= TAF WAKK 261700Z 2618/2706 02002KT 8000 SCT017 PROB40 TEMPO 2618/2622 5000 RA BECMG 2701/2703 35003KT 9999=
Tafor2021-03-26 16:49:38FTID31 WAJJ 261700 TAF WAJJ 261700Z 2618/2718 29003KT 9999 SCT012 PROB40 TEMPO 2618/2621 7000 -RA BECMG 2621/2623 23002KT 9999 SCT011=
Tafor2021-03-26 10:49:11FTID31 WAJJ 261100 TAF WAJJ 261100Z 2612/2712 12003KT 9000 -RA SCT011 PROB30 TEMPO 2612/2616 7000 -RA BECMG 2621/2623 19002KT 9999 BKN011=
Tafor2021-03-26 10:48:50FTID43 WAJJ 261100 TAF WAJI 261100Z 2612/2624 00000KT 8000 SCT014 PROB30 TEMPO 2614/2616 6000 -RA= TAF WAVV 261100Z 2612/2624 15002KT 6000 BKN015 BECMG 2615/2617 2000 BR BKN003= TAF WAKT 261100Z 2612/2624 25005KT 5000 -RA FEW009CB BKN010 PROB30 2612/2616 RA BKN017 BECMG 2616/2617 8000 NSW BKN009= TAF WAKK 261100Z 2612/2624 02003KT 5000 -TSRA SCT014CB PROB30 TEMPO 2613/2616 RA BKN015 BECMG 2616/2618 8000=
Tafor2021-03-23 22:55:19FTID43 WAJJ 232300 TAF WAJI 232300Z 2400/2412 04006KT 9999 SCT015 TEMPO 2401/2403 6000 RA FEW014CB SCT15= TAF WAVV 232300Z 2400/2412 33003KT 9999 SCT020 BECMG 2402/2404 15016KT TEMPO 2406/2408 VCSH BKN020= TAF WAKT 232300Z 2400/2412 00000KT 6000 -RA BKN009 BECMG 2402/2403 08004KT 9999 NSW SCT010= TAF WAKK 232300Z 2400/2412 01005KT 9999 SCT015 TEMPO 2404/2406 5000 RA FEW013CB BECMG 2408/2410 8000 NSW= FTID31 WAJJ 232300 TAF WAJJ 232300Z 2400/2424 12004KT 9999 SCT012 PROB30 TEMPO 2401/2403 -RA BECMG 2403/2405 28006KT TEMPO 2406/2408 VCSH FEW012CB FEW013=
Tafor2021-03-23 10:58:09FTID43 WAJJ 231100 TAF WAJI 231100Z 2312/2324 00000KT 9000 SCT015= TAF WAVV 231100Z 2312/2324 16002KT 2000 BR BKN004 TEMPO 2314/2316 -RA BECMG 2320/2322 9000 NSW SCT020= TAF WAKT 231100Z 2312/2324 00000KT 9000 SCT010 PROB40 TEMPO 2314/2316 -TSRA FEW009CB SCT009= TAF WAKK 231100Z 2312/2324 03004KT 9000 SCT017 BECMG 2320/2322 28004KT= FTID31 WAJJ 231100 TAF WAJJ 231100Z 2312/2412 29003KT 9999 SCT012 BECMG 2313/2315 00000KT PROB30 TEMPO 2316/2318 -RA=
Tafor2021-03-19 20:51:23FTID43 WAJJ 191700 TAF WAJI 191700Z 1918/2006 00000KT 9999 FEW015= TAF WAVV 191700Z 1918/2006 00000KT 2000 BR BKN002 BECMG 1921/1922 7000 NSW SCT015= TAF WAKT 191700Z 1918/2006 00000KT 9999 SCT015= TAF WAKK 191700Z 1918/2006 09004KT 7000 SCT016 TEMPO 1918/1920 9000=
Tafor2021-03-19 20:51:00FTID31 WAJJ 191700 TAF WAJJ 191700Z 1918/2018 29004KT 9999 FEW013 BECMG 1922/1923 22005KT BECMG 2005/2008 VCSH FEW012CB=
Tafor2021-03-19 10:32:58FTID31 WAJJ 191100 TAF WAJJ 191100Z 1912/2012 29007KT 9999 FEW013 BECMG 1912/1914 00000KT BECMG 1922/1923 17002KT=
Tafor2021-03-19 10:32:36TAF WAJI 191100Z 1912/1924 03004KT 9000 SCT014= TAF WAVV 191100Z 1912/1924 17004KT 9999 BKN017 BECMG 1914/1916 00000KT 2000 BR BKN003= TAF WAKT 191100Z 1912/1924 22003KT 9999 FEW010= TAF WAKK 191100Z 1912/1924 09003KT 7000 SCT018 TEMPO 1912/1915 9999=
Tafor2021-03-19 04:55:45FTID43 WAJJ 190500 TAF WAJI 190500Z 1906/1918 04003KT 9999 FEW015 TEMPO 1907/1908 FEW014CB FEW015= TAF WAVV 190500Z 1906/1918 15015KT 9999 BKN020 TEMPO 1907/1909 VCSH FEW015CB BKN017 BECMG 1911/1913 15003KT 3000 BR BKN004= TAF WAKT 190500Z 1906/1918 31003KT 9999 SCT010 TEMPO 1908/1910 6000 RA FEW009CB SCT010= TAF WAKK 190500Z 1906/1918 24006KT 9999 SCT015 PROB30 TEMPO 1907/1909 5000 -RA=
Tafor2021-03-19 04:47:56FTID31 WAJJ 190500 TAF WAJJ 190500Z 1906/2006 28005KT 9999 FEW013 TEMPO 1906/1909 VCSH FEW012CB FEW013 BECMG 1910/1912 00000KT PRO430 TEMPO 1915/1917 5000 RA=
Tafor2021-03-13 23:05:07FTID43 WAJJ 132300 TAF WAJI 132300Z 1400/1412 04005KT 9999 SCT015 TEMPO 1402/1404 FEW014CB SCT015= TAF WAVV 132300Z 1400/1412 32004KT 9000 BKN020 PROB30 TEMPO 1400/1402 5000 RA BECMG 1402/1404 15012KT= TAF WAKT 132300Z 1400/1412 28005KT 3000 RA FEW008SB SCT009 BECMG 1401/1403 9999 NSW SCT010= TAF WAKK 132300Z 1400/1412 35006KT 8000 SCT016 TEMPO 1402/1405 5000 RA BKN015 BECMG 1410/1412 6000= FTID31 WAJJ 132300 TAF WAJJ 132300Z 1400/1424 14005KT 9999 SCT013 BECMG 1403/1405 28006KT TEMPO 1406/1409 VCSH FEW012CB FEW013=
Tafor2021-03-13 11:16:51FTID43 WAJJ 131100 TAF WAJI 131100Z 1312/1324 00000KT 9999 SCT014 BECMG 1320/1222 08004KT= TAF WAVV 131100Z 1312/1324 15003KT 4000 BR BKN010 TEMPO 1312/1314 RA BECMG 1315/1317 1000 MIFG BKN001 BECMG 1320/1322 7000 NSW BKN011= TAF WAKT 131100Z 1312/1324 10005KT 8000 SCT010 TEMPO 1314/1316 -RA BKN009= TAF WAKK 131100Z 1312/1324 16004KT 8 FTID31 WAJJ 131100 TAF WAJJ 131100Z 1312/1412 28005KT 9999 FEW013 PROB40 TEMPO 1315/1318 5000 TSRA FEW012CB BKN012 BECMG 1318/1319 00000KT=
Tafor2021-03-06 05:44:50TAF WAJI 060500Z 0606/0618 29004KT 9999 FEW015= TAF WAVV 060500Z 0606/0618 15015KT 9999 SCT020 TEMPO 0606/0610 8000 VCSH FEW018CB SCT020 BECMG 0610/0612 15005KT 3000 BR BKN005= TAF WAKT 060500Z 0606/0618 30008KT 260V340 8000 FEW009 FEW010 TEMPO 0609/0613 6000 -RA FEW010CB SCT012= TAF WAKK 060500Z 0606/0618 31007KT 9999 BKN015 TEMPO 0609/0612 5000 -RA TEMPO 0615/0618 4000 RA=
Tafor2021-03-06 05:44:30TAF WAJJ 060500Z 0606/0706 28017KT 9999 SCT013 TEMPO 0606/0609 VCSH FEW012CB FEW013 BECMG 0613/0615 00000KT=
Tafor2021-03-03 22:53:14FTID43 WAJJ 032300 TAF WAJI 032300Z 0400/0412 26004KT 6000 -RA FEW014CB SCT015 BECMG 0402/0403 9999 NSW SCT014= TAF WAVV 032300Z 0400/0412 15004KT 9999 SCT020 BECMG 0403/0405 16018KT= TAF WAKT 032300Z 0400/0412 31004KT 9999 SCT010= TAF WAKK 032300Z 0400/0412 30010KT 9000 BKN015 TEMPO 0400/0403 5000 -RA TEMPO 0406/0409 5000 -RA= FTID31 WAJJ 032300 TAF WAJJ 032300Z 0400/0424 26008KT 6000 -RA SCT011 BECMG 0401/0403 9999 NSW TEMPO 0406/0409 FEW012CB FEW014=
Tafor2021-03-03 17:04:15FTID43 WAJJ 031700 TAF WAJI 031700Z 0318/0406 00000KT 9000 SCT015 BECMG 0320/0322 26003KT= TAF WAVV 031700Z 0318/0406 15003KT 2000 BR BKN003 BECMG 0321/0323 9000 NSW SCT020= TAF WAKT 031700Z 0318/0406 26004KT 9000 SCT010= TAF WAKK 031700Z 0318/0406 32004KT 9000 SCT014= FTID31 WAJJ 031700 TAF WAJJ 031700Z 0318/0418 00000KT 9999 FEW013 TEMPO 0319/0321 5000 -RA BKN010 BECMG 0321/0422 15004KT BECMG 0403/0405 28010KT=
Tafor2021-03-02 04:50:26TAF WAJI 020500Z 0206/0218 29004KT 9000 FEW014= TAF WAVV 020500Z 0206/0218 14030KT 9999 SCT020 TEMPO 0206/0208 VCSH BKN015 BECMG 0209/0211 15005KT 3000 BR BKN005= TAF WAKT 020500Z 0206/0218 28006KT 8000 FEW008 TEMPO 0206/0209 -RA FEW010CB SCT012= TAF WAKK 020500Z 0206/0218 27010KT 9999 SCT015 BECMG 0210/0212 30008KT 8000 TEMPO 0215/0218 4000 SHRA BKN015 =
Tafor2021-03-02 04:50:00TAF WAJJ 020500Z 0206/0306 28020KT 9999 FEW013 TEMPO 0206/0208 VCSH FEW012CB SCT013 PROB30 TEMPO 0209/0213 -RA BECMG 0214/0215 09003KT BECMG 0222/0224 14005KT=
Tafor2021-02-24 22:02:35TAF WAJJ 241100Z 2412/2512 31007KT 9999 -RA FEW012CB SCT013 TEMPO 2413/2417 7000 -RA BKN011 BECMG 2418/2119 00000KT=
Tafor2021-02-24 22:02:08TAF WAJJ 241700Z 2418/2518 00000KT 8000 RA SCT012 TEMPO 2417/2421 5000 RA TEMPO 2422/2501 5000 RA BECMG 2502/2503 7000=
Tafor2021-02-21 10:58:55FTID43 WAJJ 211100 TAF WAJI 211100Z 2112/2124 00000KT 9000 SCT016 TEMPO 2114/2116 5000 RA BKN014= TAF WAVV 211100Z 2112/2124 16003KT 6000 BKN012 TEMPO 2112/2114 -RA BECMG 2114/2116 3000 BR BKN003= TAF WAKT 211100Z 2112/2124 00000KT 8000 FEW010 TEMPO 2114/2117 4000 -RA BKN009= TAF WAKK 211100Z 2112/2124 28004KT 8000 SCT016 PROB40 TEMPO 2113/2115 -RA= FTID31 WAJJ 211100 TAF WAJJ 211100Z 2112/2212 28003KT 9999 SCT013 PROB40 TEMPO 2113/2115 6000 RA BKN011 BECMG 2116/2118 00000KT=
Tafor2021-02-18 05:38:18FTID31 WAJJ 180537 TAF AMD WAJJ 180537Z 1806/1906 13004KT 9999 SCT013 TEMPO 1806/1809 28006 VCSH FEW012CB SCT013 BECMG 1813/1815 00000KT=
Tafor2021-02-18 04:51:16FTID31 WAJJ 180500 TAF WAJJ 180500Z 1806/1906 27008KT 5000 RA FEW012CB SCT013 BECMG 1808/1809 9000 NSW SCT012 BECMG 1813/1815 00000KT= FTID43 WAJJ 180500 TAF WAJI 180500Z 1806/1818 30010KT 5000 RA FEW014CB SCT015 BECMG 1808/1809 00000KT 9000 NSW SCT014= TAF WAVV 180500Z 1806/1818 15014KT 9999 BKN017 TEMPO 1806/1808 6000 -RA BECMG 1811/1813 15003KT 3000 BR BKN004= TAF WAKT 180500Z 1806/1818 29006KT 9999 SCT010= TAF WAKK 180500Z 1806/1818 23009KT 9000 BKN017 TEMPO 1806/1808 5000 SHRA FEW013CB BECMG 1812/1814 00000KT 7000=
Tafor2021-02-16 04:55:44FTID43 WAJJ 160500 TAF WAJI 160500Z 1606/1618 29003KT 9999 FEW014= TAF WAVV 160500Z 1606/1618 15014KT 9999 BKN019 PROB40 TEMPO 1606/1608 6000 -RA BKN010 BECMG 1610/1612 3000 15003KT BR BKN004= TAF WAKT 160500Z 1606/1618 33002KT 9999 SCT010 TEMPO 1606/1608 6000 RA BKN008= TAF WAKK 160500Z 1608/1618 30008KT 9000 BKN015 TEMPO 1606/1609 5000 -RA= FTID31 WAJJ 160500 TAF WAJJ 160500Z 1606/1706 28008KT 9999 SCT013 TEMPO 1606/1609 VCSH FEW012CB SCT013 BECMG 1614/1616 00000KT=
Tafor2021-02-11 22:47:45FTID31 WAJJ 112300 TAF WAJJ 112300Z 1200/1224 15004KT 9999 SCT013 BECMG 1203/1205 28008KT TEMPO 1206/1209 VCSH FEW012CB FEW013 BECMG 1214/1216 00000KT= FTID43 WAJJ 112300 TAF WAJI 112300Z 1200/1212 30004KT 9999 FEW015 BECMG 1208/1210 00000KT 7000= TAF WAVV 112300Z 1200/1212 33003KT 9999 SCT020 TEMPO 1201/1203 7000 -RA BECMG 1202/1204 15016KT 9999= TAF WAKT 112300Z 1200/1212 26004KT 9999 SCT010 BECMG 1209/1211 00000KT 7000= TAF WAKK 102300Z 1100/1112 32005KT 9999 SCT016=
Tafor2021-02-11 16:53:57FTID31 WAJJ 111700 TAF WAJJ 111700Z 1118/1218 00000KT 9999 FEW013 PROB40 TEMPO 1119/1122 7000 -RA BECMG 1121/1122 28004KT= FTID43 WAJJ 111700 TAF WAJI 111700Z 1118/1206 00000KT 7000 FEW015 BECMG 1120/1122 08004KT 9999= TAF WAVV 111700Z 1118/1206 00000KT 3000 BR BKN004 BECMG 1121/1123 33003KT 7000 NSW BKN015= TAF WAKT 111700Z 1118/1206 00000KT 7000 SCT010 BECMG 1120/1122 28004KT 9999= TAF WAKK 111700Z 1118/1206 32004KT 7000 SCT016=
Tafor2021-02-11 10:52:23FTID31 WAJJ 111100 TAF WAJJ 111100Z 1112/1212 26004KT 9999 FEW013 PROB40 TEMPO 1114/1117 7000 -RA BECMG 1116/1118 00000KT= FTID43 WAJJ 111100 TAF WAJI 111100Z 1112/1124 00000KT 8000 SCT015= TAF WAVV 111100Z 1112/1124 15003KT 3000 BR BKN004 TEMPO 1114/1116 RA BECMG 1121/1123 7000 NSW BKN015= TAF WAKT 111100Z 1112/1124 00000KT 9000 SCT010 TEMPO 1113/1116 5000 -RA BKN009= TAF WAKK 111100Z 1112/1124 28006KT 9000 SCT016 TEMPO 1112/1115 6000 RA BKN015=
Tafor2021-02-07 04:55:23FTID31 WAJJ 070500 TAF WAJJ 070500Z 0706/0806 13005KT 9000 -RA SCT012 BECMG 0708/0709 28006KT 9000 NSW TEMPO 0713/0716 6000 -RA= FTID43 WAJJ 070500 TAF WAJI 070500Z 0706/0718 08004KT 7000 -RA FEW014CB FEW015 BECMG 0708/0710 00000KT NSW SCT014= TAF WAVV 070500Z 0706/0718 15016KT 9999 BKN020 BECMG 0710/0712 15005KT 3000 BR BKN005= TAF WAKT 070500Z 0706/0718 28006KT 4000 -TSRA FEW009CB BKN010 BECMG 0708/0709 9000 NSW SCT010= TAF WAKK 070500Z 0706/0718 31008KT 9999 BKN015 TEMPO 0708/0711 5000 -RA=
Tafor2021-02-01 22:56:15FTID43 WAJJ 012300 TAF WAJI 012300Z 0200/0212 28004KT 9999 FEW014 BECMG 0210/0212 00000KT 7000= TAF WAVV 012300Z 0200/0212 15004KT 9999 SCT020 BECMG 0202/0204 15016KT= TAF WAKT 012300Z 0200/0212 28004KT 9999 SCT010 BECMG 0209/0211 00000KT 7000= TAF WAKK 012300Z 0200/0212 30007KT 9999 SCT016 TEMPO 0205/0208 5000 -RA BKN015= FTID31 WAJJ 012300 TAF WAJJ 012300Z 0200/0224 28008KT 9999 SCT013 BECMG 0209/0211 00000KT=
Tafor2021-02-01 17:00:10FTID43 WAJJ 011700 TAF WAJI 011700Z 0118/0206 00000KT 7000 -RA FEW014CB SCT015 BECMG 0120/0122 9999 NSW FEW014= TAF WAVV 011700Z 0118/0206 15008KT 3000 BR BKN005 BECMG 0121/0123 9999 NSW BKN011= TAF WAKT 011700Z 0118/0206 00000KT 9000 SCT010= TAF WAKK 011700Z 0118/0206 30004KT 7000 SCT014 BECMG 0120/0122 9999= FTID31 WAJJ 011700 TAF WAJJ 011700Z 0118/0218 00000KT 9999 SCT010 PROB40 TEMPO 0119/0121 7000 -RA BECMG 0121/0123 12003KT=
Tafor2021-02-01 11:00:48FTID43 WAJJ 011100 TAF WAJI 011100Z 0112/0124 26004KT 7000 -RA FEW014CB SCT015 BECMG 0115/0117 00000KT NSW SCT014= TAF WAVV 011100Z 0112/0124 15005KT 3000 BR BKN004 TEMPO 0114/0116 -RA BECMG 0121/0123 30003KT 7000 NSW BKN011= TAF WAKT 011100Z 0112/0124 00000KT 7000 SCT010= TAF WAKK 011100Z 0112/0124 29004KT 8000 BKN016 PROB30 TEMPO 0114/0116 -RA= FTID31 WAJJ 011100 TAF WAJJ 011100Z 0112/0212 27004KT 6000 -RA SCT010 BECMG 0114/0116 00000KT 9000 NSW BECMG 0120/0122 28003KT=